Terminal Aerodrome Forecast
Issued by NWS

Home | Current Version | Previous Version | Text Only | Print | Product List | Glossary On
Versions: 1 2 3 4 5 6 7 8 9 10 11 12 13 14 15 16 17 18 19 20 21 22 23 24 25 26 27
000
FTUS43 KAPX 221700
TAFAPN
TAF
KAPN 221727Z 2218/2318 11005KT P6SM BKN024
     FM221900 10006KT P6SM SCT040
     FM230000 00000KT P6SM SCT100
     FM230700 00000KT 1SM BR SCT002
     FM231000 00000KT 1/2SM FG VV002
     FM231330 08004KT P6SM BKN022=

USA.gov is the U.S. government's official web portal to all federal, state and local government web resources and services.